Latest Weather Observations for Victoria River Downs

IDD60801

Issued at 3:31 pm CST Thursday 11 February 2016 (issued every 30 minutes, with the page automatically refreshed every 10 minutes)

About weather observations | Map of weather stations | Latest weather observations for NT | Other Formats
Station Details ID: 014825 Name: VICTORIA RIVER DOWNS Lat: -16.40 Lon: 131.01 Height: 88.5 m
Data from the previous 72 hours. | See also: Recent months at Victoria River Downs
Date/Time
CST
Temp
°C
App
Temp
°C
Dew
Point
Rel
Hum
%
Delta-T
°C
Wind Press
QNH
hPa
Press
MSL
hPa
Rain
since 9 am
mm
Dir
 
Spd
km/h
Gust
km/h
Spd
kts
Gust
kts
11/03:30pm 37.2 37.2 18.2 32 12.5 SE 15 26 8 14 1004.1 - 0.0
11/03:00pm 36.9 37.2 18.0 33 12.4 ESE 13 28 7 15 1004.6 - 0.0
11/02:30pm 37.2 36.4 17.2 30 13.0 ESE 17 28 9 15 1005.0 - 0.0
11/02:00pm 37.1 37.1 18.1 32 12.5 ESE 15 20 8 11 1005.3 - 0.0
11/01:30pm 37.0 37.1 16.5 29 13.2 ESE 11 19 6 10 1005.8 - 0.0
11/01:00pm 35.5 37.2 18.6 37 11.1 ESE 7 13 4 7 1006.2 - 0.0
11/12:30pm 35.6 37.2 19.9 39 10.5 E 11 19 6 10 1006.7 - 0.0
11/12:00pm 34.9 37.0 20.1 42 9.9 S 9 15 5 8 1007.0 1006.5 0.0
11/11:30am 34.5 37.1 20.5 44 9.4 SSE 7 11 4 6 1007.4 - 0.0
11/11:00am 33.6 36.4 20.4 46 8.8 SSE 6 11 3 6 1007.7 - 0.0
11/10:30am 33.4 36.7 21.9 51 7.9 SW 7 11 4 6 1008.0 - 0.0
11/10:00am 32.6 34.8 20.5 49 8.1 S 9 13 5 7 1008.1 - 0.0
11/09:30am 32.0 34.8 20.9 52 7.5 W 7 11 4 6 1008.1 - 0.0
11/09:00am 30.8 33.5 21.3 57 6.4 NNW 9 13 5 7 1008.2 1007.6 0.0
11/08:30am 29.7 33.2 22.2 64 5.1 NNW 7 13 4 7 1008.4 - 0.0
11/08:00am 28.5 31.5 22.0 68 4.4 W 9 13 5 7 1008.0 - 0.0
11/07:30am 26.8 31.3 21.5 72 3.5 CALM 0 0 0 0 1007.9 - 0.0
11/07:00am 25.4 28.2 21.5 79 2.6 NE 9 13 5 7 1007.6 - 0.0
11/06:30am 25.1 29.3 21.0 78 2.7 CALM 0 0 0 0 1007.4 - 0.0
11/06:00am 25.8 28.9 21.0 75 3.2 NE 6 7 3 4 1007.5 1006.9 0.0
11/05:30am 26.1 30.0 20.4 71 3.7 CALM 0 0 0 0 1007.5 - 0.0
11/05:00am 26.4 29.1 20.7 71 3.8 ENE 7 9 4 5 1007.3 - 0.0
11/04:30am 26.7 29.2 20.3 68 4.2 ENE 7 9 4 5 1007.1 - 0.0
11/04:00am 27.0 29.2 20.3 66 4.4 ENE 9 11 5 6 1006.9 - 0.0
11/03:30am 27.4 29.4 20.0 64 4.8 NE 9 11 5 6 1006.6 - 0.0
11/03:00am 27.9 30.0 20.2 63 5.1 ENE 9 13 5 7 1006.5 1005.9 0.0
11/02:30am 27.8 31.4 19.8 61 5.2 CALM 0 9 0 5 1006.6 - 0.0
11/02:00am 28.2 30.6 19.7 60 5.6 E 6 7 3 4 1006.5 - 0.0
11/01:30am 28.6 30.8 19.2 56 6.1 NNE 6 9 3 5 1006.7 - 0.0
11/01:00am 28.8 30.3 18.9 55 6.4 NE 9 13 5 7 1006.8 - 0.0
11/12:30am 29.7 30.5 19.1 53 6.9 NE 13 17 7 9 1006.8 - 0.0
11/12:00am 29.3 31.0 19.3 55 6.5 ENE 9 13 5 7 1006.7 1006.1 0.0
 
Date/Time
CST
Temp
°C
App
Temp
°C
Dew
Point
Rel
Hum
%
Delta-T
°C
Wind Press
QNH
hPa
Press
MSL
hPa
Rain
since 9 am
mm
Dir
 
Spd
km/h
Gust
km/h
Spd
kts
Gust
kts
10/11:30pm 30.5 31.8 19.2 51 7.4 NE 11 15 6 8 1006.8 - 0.0
10/11:00pm 30.0 31.8 20.3 56 6.4 ENE 11 15 6 8 1007.0 - 0.0
10/10:30pm 29.8 32.0 19.5 54 6.7 ENE 7 11 4 6 1006.7 - 0.0
10/10:00pm 29.8 32.5 19.5 54 6.7 W 4 9 2 5 1006.4 - 0.0
10/09:30pm 31.0 33.5 17.3 43 8.7 CALM 0 0 0 0 1006.2 - 0.0
10/09:00pm 32.2 33.2 16.9 40 9.8 ESE 7 11 4 6 1005.6 1004.9 0.0
10/08:30pm 32.8 33.3 17.4 39 9.9 S 11 15 6 8 1005.2 - 0.0
10/08:00pm 31.8 36.3 21.6 54 6.9 CALM 0 0 0 0 1004.8 - 0.0
10/07:30pm 32.7 37.4 21.9 53 7.4 CALM 0 0 0 0 1004.4 - 0.0
10/07:00pm 33.9 37.1 21.3 47 8.5 SE 6 7 3 4 1004.1 - 0.0
10/06:30pm 35.0 37.3 19.8 41 10.1 E 7 11 4 6 1003.7 - 0.0
10/06:00pm 36.5 37.4 17.6 32 12.3 ESE 9 11 5 6 1003.3 1002.6 0.0
10/05:30pm 37.4 37.7 16.9 30 13.2 E 11 15 6 8 1003.1 - 0.0
10/05:00pm 37.7 37.3 17.1 29 13.4 E 15 28 8 15 1002.8 - 0.0
10/04:30pm 37.8 37.2 15.6 27 14.1 ESE 13 20 7 11 1002.6 - 0.0
10/04:00pm 38.2 38.7 16.5 28 14.0 ESE 9 13 5 7 1002.9 - 0.0
10/03:30pm 38.0 38.8 17.4 29 13.4 SSE 9 17 5 9 1003.4 - 0.0
10/03:00pm 38.0 38.7 17.9 30 13.2 ESE 11 28 6 15 1004.1 1003.4 0.0
10/02:30pm 37.6 37.8 17.6 31 13.1 SE 13 19 7 10 1004.6 - 0.0
10/02:00pm 37.3 38.8 18.8 33 12.3 ENE 9 17 5 9 1005.1 - 0.0
10/01:30pm 36.9 37.4 17.5 32 12.6 S 11 20 6 11 1005.4 - 0.0
10/01:00pm 36.6 38.4 19.5 36 11.4 ESE 9 19 5 10 1005.8 - 0.0
10/12:30pm 35.9 36.8 17.6 34 11.9 SSE 9 15 5 8 1006.4 - 0.0
10/12:00pm 35.5 36.8 19.4 38 10.7 SSE 11 19 6 10 1006.7 1006.1 0.0
10/11:30am 34.4 36.1 18.4 38 10.5 S 7 13 4 7 1007.1 - 0.0
10/11:00am 34.2 36.2 19.1 41 10.0 SSE 7 13 4 7 1007.4 - 0.0
10/10:30am 33.4 36.2 21.5 49 8.1 SSW 9 15 5 8 1007.6 - 0.0
10/10:00am 33.0 36.4 22.7 54 7.1 WSW 9 15 5 8 1007.7 - 0.0
10/09:30am 32.5 35.7 23.7 59 6.1 SW 13 19 7 10 1007.8 - 0.0
10/09:00am 30.9 35.2 23.3 64 5.3 W 6 9 3 5 1007.7 1007.1 0.0
10/08:30am 30.2 33.8 23.1 65 4.9 W 9 13 5 7 1007.5 - 0.0
10/08:00am 28.8 34.2 23.2 71 3.8 CALM 0 0 0 0 1007.3 - 0.0
10/07:30am 26.4 31.7 23.1 82 2.3 CALM 0 0 0 0 1006.9 - 0.0
10/07:00am 25.5 29.7 22.4 83 2.1 W 4 7 2 4 1006.5 - 0.0
10/06:30am 25.7 30.5 22.2 81 2.4 CALM 0 0 0 0 1006.2 - 0.0
10/06:00am 25.7 30.2 21.6 78 2.7 CALM 0 0 0 0 1005.8 1005.2 0.0
10/05:30am 25.9 29.5 21.3 76 3.1 NNW 4 7 2 4 1005.5 - 0.0
10/05:00am 26.5 29.5 20.8 71 3.8 W 6 7 3 4 1005.4 - 0.0
10/04:30am 26.8 29.6 20.9 70 3.9 WNW 7 7 4 4 1005.3 - 0.0
10/04:00am 27.1 29.8 20.7 68 4.2 W 7 9 4 5 1005.3 - 0.0
10/03:30am 27.0 29.9 21.1 70 3.9 WNW 7 9 4 5 1005.4 - 0.0
10/03:00am 26.6 29.3 21.4 73 3.5 WNW 9 9 5 5 1005.6 1004.9 0.0
10/02:30am 26.9 30.2 21.4 72 3.7 W 6 7 3 4 1005.7 - 0.0
10/02:00am 26.7 30.2 22.1 76 3.1 W 7 9 4 5 1005.9 - 0.0
10/01:30am 26.8 29.8 22.0 75 3.2 W 9 9 5 5 1006.1 - 0.0
10/01:00am 27.3 30.3 21.3 69 4.0 W 7 9 4 5 1006.3 - 0.0
10/12:30am 27.6 30.9 21.4 69 4.1 W 6 7 3 4 1006.5 - 0.0
10/12:00am 28.3 31.7 21.6 67 4.5 W 6 7 3 4 1006.7 1006.1 0.0
 
Date/Time
CST
Temp
°C
App
Temp
°C
Dew
Point
Rel
Hum
%
Delta-T
°C
Wind Press
QNH
hPa
Press
MSL
hPa
Rain
since 9 am
mm
Dir
 
Spd
km/h
Gust
km/h
Spd
kts
Gust
kts
09/11:30pm 28.6 31.5 21.1 64 5.0 W 7 7 4 4 1006.9 - 0.0
09/11:00pm 29.2 32.3 21.4 63 5.2 WNW 7 9 4 5 1007.2 - 0.0
09/10:30pm 29.6 32.7 21.5 61 5.4 WNW 7 9 4 5 1006.9 - 0.0
09/10:00pm 29.7 33.0 21.9 63 5.3 WNW 7 9 4 5 1006.8 - 0.0
09/09:30pm 30.5 34.9 21.3 58 6.2 CALM 0 0 0 0 1006.6 - 0.0
09/09:00pm 30.6 35.0 21.4 58 6.2 CALM 0 0 0 0 1006.3 1005.7 0.0
09/08:30pm 31.1 35.3 21.0 55 6.8 CALM 0 0 0 0 1006.2 - 0.0
09/08:00pm 32.2 - 20.5 50 7.8 - - - - - 1006.1 - 0.0
09/07:30pm 33.8 - 19.1 42 9.7 - - - - - 1006.0 - 0.0
09/07:00pm 35.8 36.9 16.5 31 12.3 ESE 6 9 3 5 1005.7 - 0.0
09/06:30pm 36.7 37.9 17.3 31 12.6 SE 7 11 4 6 1005.3 - 0.0
09/06:00pm 37.3 37.9 16.8 29 13.3 SE 9 13 5 7 1005.0 1004.3 0.0
09/05:30pm 37.5 37.5 15.3 26 14.0 SE 9 17 5 9 1004.9 - 0.0
09/05:00pm 37.9 38.1 16.8 29 13.6 SE 11 15 6 8 1005.1 - 0.0
09/04:30pm 37.7 38.1 18.2 32 12.8 ESE 13 19 7 10 1005.3 - 0.0
09/04:00pm 37.6 38.3 17.1 30 13.3 SE 9 17 5 9 1005.5 - 0.0
09/03:30pm 37.6 37.7 16.5 28 13.6 S 11 15 6 8 1005.8 - 0.0
09/03:00pm 37.6 38.7 18.1 32 12.8 ESE 9 15 5 8 1006.0 1005.5 0.0
09/02:30pm 37.3 37.3 17.3 30 13.0 SE 13 20 7 11 1006.4 - 0.0
09/02:00pm 37.2 37.4 16.7 29 13.2 ESE 11 19 6 10 1006.8 - 0.0
09/01:30pm 37.2 38.0 17.2 30 13.0 SE 9 15 5 8 1007.2 - 0.0
09/01:00pm 36.6 36.6 16.2 29 13.0 ESE 11 24 6 13 1007.8 - 0.0
09/12:30pm 36.8 37.4 16.9 31 12.8 SSE 9 13 5 7 1008.2 - 0.0
09/12:00pm 36.3 36.4 16.5 31 12.7 SSE 11 17 6 9 1008.5 1008.0 0.0
09/11:30am 36.1 36.5 18.2 34 11.7 SE 13 20 7 11 1008.9 - 0.0
09/11:00am 35.6 37.4 19.5 38 10.7 SE 9 13 5 7 1009.3 - 0.0
09/10:30am 34.6 36.7 19.4 40 10.1 S 7 11 4 6 1009.4 - 0.0
09/10:00am 33.3 36.6 21.8 51 7.8 SSE 7 11 4 6 1009.5 - 0.0
09/09:30am 32.9 36.4 21.1 50 8.0 E 4 7 2 4 1009.6 - 0.0
09/09:00am 31.2 34.5 20.8 54 7.0 SW 4 7 2 4 1009.3 1008.7 0.0
09/08:30am 30.2 33.6 21.6 60 5.8 WNW 6 7 3 4 1009.2 - 0.0
09/08:00am 28.2 32.2 22.7 72 3.7 W 6 7 3 4 1008.9 - 0.0
09/07:30am 26.4 30.7 22.7 80 2.5 WNW 4 7 2 4 1008.6 - 0.0
09/07:00am 25.1 29.0 22.6 86 1.7 WNW 6 7 3 4 1008.4 - 0.0
09/06:30am 25.1 30.0 22.4 85 1.8 CALM 0 0 0 0 1008.1 - 0.0
09/06:00am 25.1 30.2 22.6 86 1.7 CALM 0 7 0 4 1007.7 1007.1 0.0
09/05:30am 25.2 30.2 22.5 85 1.8 CALM 0 0 0 0 1007.6 - 0.0
09/05:00am 25.5 30.6 22.6 84 2.0 CALM 0 0 0 0 1007.4 - 0.0
09/04:30am 25.7 30.6 22.4 82 2.2 CALM 0 0 0 0 1007.2 - 0.0
09/04:00am 25.7 30.6 22.4 82 2.2 CALM 0 0 0 0 1007.0 - 0.0
09/03:30am 26.3 31.0 21.9 77 3.0 CALM 0 0 0 0 1006.9 - 0.0
09/03:00am 26.2 31.1 22.3 79 2.6 CALM 0 0 0 0 1006.9 1006.3 0.0
09/02:30am 26.6 31.2 21.8 75 3.2 CALM 0 0 0 0 1006.9 - 0.0
09/02:00am 27.0 30.5 21.1 70 3.9 W 4 6 2 3 1007.1 - 0.0
09/01:30am 27.0 30.5 22.2 75 3.2 E 7 7 4 4 1007.3 - 0.0
09/01:00am 27.3 32.2 22.3 74 3.4 CALM 0 0 0 0 1007.5 - 0.0
09/12:30am 27.7 32.9 22.9 75 3.3 CALM 0 0 0 0 1007.8 - 0.0
09/12:00am 27.8 32.6 22.1 71 3.9 CALM 0 0 0 0 1008.2 1007.6 0.0
 
Date/Time
CST
Temp
°C
App
Temp
°C
Dew
Point
Rel
Hum
%
Delta-T
°C
Wind Press
QNH
hPa
Press
MSL
hPa
Rain
since 9 am
mm
Dir
 
Spd
km/h
Gust
km/h
Spd
kts
Gust
kts
08/11:30pm 28.1 33.7 23.5 76 3.2 CALM 0 0 0 0 1008.4 - 0.0
08/11:00pm 28.2 33.3 22.7 72 3.7 CALM 0 0 0 0 1008.4 - 0.0
08/10:30pm 28.6 33.8 22.8 71 4.0 CALM 0 0 0 0 1008.2 - 0.0
08/10:00pm 29.1 34.0 22.3 66 4.6 CALM 0 0 0 0 1007.9 - 0.0
08/09:30pm 29.6 34.8 22.8 67 4.7 CALM 0 0 0 0 1007.8 - 0.0
08/09:00pm 29.9 34.4 21.6 61 5.6 CALM 0 0 0 0 1007.5 1006.9 0.0
08/08:30pm 30.6 34.7 20.8 56 6.5 CALM 0 0 0 0 1007.3 - 0.0
08/08:00pm 31.8 35.2 19.4 47 8.2 CALM 0 0 0 0 1007.1 - 0.0
08/07:30pm 33.0 35.3 16.8 38 10.3 CALM 0 0 0 0 1006.8 - 0.0
08/07:00pm 35.7 37.3 16.9 32 12.1 ESE 4 7 2 4 1006.5 - 0.0
08/06:30pm 36.5 37.2 15.6 29 13.2 E 6 9 3 5 1006.4 - 0.0
08/06:00pm 37.0 35.9 14.3 26 14.2 ENE 13 20 7 11 1006.1 1005.5 0.0
08/05:30pm 37.3 36.6 13.3 23 14.8 E 9 15 5 8 1006.0 - 0.0
08/05:00pm 37.4 37.0 14.0 24 14.5 ENE 9 17 5 9 1006.0 - 0.0
08/04:30pm 37.6 36.9 14.2 25 14.6 ENE 11 20 6 11 1006.1 - 0.0
08/04:00pm 37.4 36.9 15.8 27 13.8 E 13 22 7 12 1006.2 - 0.0

Other Formats:

Comma delimited format used in spreadsheet applications
http://www.bom.gov.au/fwo/IDD60801/IDD60801.94232.axf

JavaScript Object Notation format (JSON) in row-major order
http://www.bom.gov.au/fwo/IDD60801/IDD60801.94232.json